Terminal Aerodrome Forecast
Issued by NWS

Home | Current Version | Previous Version | Text Only | Print | Product List | Glossary On
Versions: 1 2 3 4 5 6 7 8 9 10 11 12 13 14 15 16 17 18 19 20 21 22 23 24 25 26 27 28 29 30 31 32 33 34 35
000
FTAK31 PAFA 282339
TAFAOT
TAF
PAOT 282339Z 2900/2924 31020KT 6SM -RA BR FEW015 BKN025 OVC035
     FM290600 30018KT 6SM -SHRA BR SCT015 BKN025 OVC035
     FM291200 30016KT P6SM -SHRA SCT015 BKN025 OVC035=

USA.gov is the U.S. government's official web portal to all federal, state and local government web resources and services.